Time;durP1;ratioP1;P1;durP2;ratioP2;P2;SDS_P1;SDS_P2;PMS_P1;PMS_P2;Temp;Humidity;BMP_temperature;BMP_pressure;BME280_temperature;BME280_humidity;BME280_pressure;Samples;Min_cycle;Max_cycle;Signal;HPM_P1;HPM_P2
2022/08/09 00:01:31;;;;;;;4.65;3.75;;;;;;;;;;1732572;82;21119;-65
2022/08/09 00:03:57;;;;;;;4.85;3.50;;;;;;;;;;1737319;82;21072;-65
2022/08/09 00:06:23;;;;;;;5.25;3.65;;;;;;;;;;1734012;82;21055;-66
2022/08/09 00:08:50;;;;;;;5.10;3.75;;;;;;;;;;1724131;82;21033;-66
2022/08/09 00:11:16;;;;;;;4.90;4.12;;;;;;;;;;1691870;84;21095;-64
2022/08/09 00:13:43;;;;;;;4.03;3.33;;;;;;;;;;1729786;82;21053;-67
2022/08/09 00:16:09;;;;;;;4.67;3.72;;;;;;;;;;1729312;82;21025;-66
2022/08/09 00:18:36;;;;;;;5.33;3.98;;;;;;;;;;1736323;82;21053;-63
2022/08/09 00:21:03;;;;;;;5.70;3.45;;;;;;;;;;1727536;82;21025;-64
2022/08/09 00:23:29;;;;;;;5.12;3.80;;;;;;;;;;1748181;82;21021;-64
2022/08/09 00:25:55;;;;;;;4.53;3.70;;;;;;;;;;1751150;82;21056;-65
2022/08/09 00:28:22;;;;;;;4.60;3.90;;;;;;;;;;1752349;82;21630;-65
2022/08/09 00:30:49;;;;;;;6.33;3.85;;;;;;;;;;1753225;82;21037;-65
2022/08/09 00:33:15;;;;;;;4.67;3.47;;;;;;;;;;1751613;82;21067;-65
2022/08/09 00:35:41;;;;;;;6.40;3.47;;;;;;;;;;1739542;82;21032;-65
2022/08/09 00:38:08;;;;;;;4.70;4.20;;;;;;;;;;1752119;82;21049;-65
2022/08/09 00:40:34;;;;;;;5.30;4.12;;;;;;;;;;1732920;82;21112;-66
2022/08/09 00:43:01;;;;;;;5.20;3.72;;;;;;;;;;1753312;82;21051;-64
2022/08/09 00:45:27;;;;;;;4.40;3.40;;;;;;;;;;1753320;82;21061;-64
2022/08/09 00:47:54;;;;;;;5.78;4.10;;;;;;;;;;1751495;82;21056;-65
2022/08/09 00:50:20;;;;;;;4.55;3.80;;;;;;;;;;1745741;82;21582;-65
2022/08/09 00:52:46;;;;;;;4.72;3.87;;;;;;;;;;1737749;82;21345;-65
2022/08/09 00:55:12;;;;;;;8.53;4.30;;;;;;;;;;1735991;82;20989;-65
2022/08/09 00:57:38;;;;;;;5.75;3.98;;;;;;;;;;1737546;82;21052;-65
2022/08/09 01:00:08;;;;;;;5.10;4.60;;;;;;;;;;1738516;82;21017;-65
2022/08/09 01:08:44;;;;;;;4.97;4.33;;;;;;;;;;1754664;82;21086;-70
2022/08/09 01:11:28;;;;;;;5.03;4.42;;;;;;;;;;1754559;82;21506;-70
2022/08/09 01:13:55;;;;;;;5.10;3.55;;;;;;;;;;1754342;82;21066;-70
2022/08/09 01:16:23;;;;;;;4.30;3.70;;;;;;;;;;1724103;83;21064;-70
2022/08/09 01:18:49;;;;;;;5.33;3.90;;;;;;;;;;1724206;83;21126;-70
2022/08/09 01:21:20;;;;;;;4.60;3.85;;;;;;;;;;1724048;83;21070;-70
2022/08/09 01:24:04;;;;;;;5.53;3.85;;;;;;;;;;1686543;83;21569;-71
2022/08/09 01:26:48;;;;;;;4.62;3.33;;;;;;;;;;1724209;83;21030;-72
2022/08/09 01:29:14;;;;;;;3.83;3.25;;;;;;;;;;1724217;83;21514;-72
2022/08/09 01:31:41;;;;;;;4.15;3.27;;;;;;;;;;1724003;83;21078;-72
2022/08/09 01:34:07;;;;;;;4.12;3.55;;;;;;;;;;1724166;83;21043;-72
2022/08/09 01:36:33;;;;;;;4.42;3.45;;;;;;;;;;1723864;83;21093;-72
2022/08/09 01:39:00;;;;;;;4.45;3.40;;;;;;;;;;1724439;83;21073;-71
2022/08/09 01:41:28;;;;;;;7.22;4.08;;;;;;;;;;1723829;83;21097;-70
2022/08/09 01:43:55;;;;;;;4.12;3.30;;;;;;;;;;1723047;83;21069;-70
2022/08/09 01:46:32;;;;;;;4.85;3.67;;;;;;;;;;1724161;83;21070;-70
2022/08/09 01:48:59;;;;;;;4.12;3.58;;;;;;;;;;1722821;83;21062;-70
2022/08/09 01:51:26;;;;;;;4.83;3.47;;;;;;;;;;1724207;83;21600;-70
2022/08/09 01:53:53;;;;;;;5.20;4.15;;;;;;;;;;1723945;83;21355;-70
2022/08/09 01:56:19;;;;;;;6.25;3.45;;;;;;;;;;1724152;83;21541;-71
2022/08/09 01:58:45;;;;;;;4.10;3.15;;;;;;;;;;1724036;83;21050;-71
2022/08/09 02:01:12;;;;;;;5.25;3.37;;;;;;;;;;1723998;83;21034;-71
2022/08/09 02:03:41;;;;;;;5.50;3.47;;;;;;;;;;1710212;83;21061;-71
2022/08/09 02:06:06;;;;;;;3.95;3.30;;;;;;;;;;1692726;84;21100;-72
2022/08/09 02:08:34;;;;;;;4.55;3.17;;;;;;;;;;1698886;83;21041;-72
2022/08/09 02:11:00;;;;;;;3.65;2.80;;;;;;;;;;1682123;84;21100;-72
2022/08/09 02:13:26;;;;;;;3.98;2.65;;;;;;;;;;1708212;84;21077;-72
2022/08/09 02:15:54;;;;;;;3.65;2.80;;;;;;;;;;1719722;82;21491;-72
2022/08/09 02:18:21;;;;;;;2.80;2.40;;;;;;;;;;1721185;82;21112;-71
2022/08/09 02:20:49;;;;;;;4.40;2.70;;;;;;;;;;1712750;84;21563;-72
2022/08/09 02:23:34;;;;;;;3.90;2.60;;;;;;;;;;1705705;84;21127;-71
2022/08/09 02:26:00;;;;;;;5.10;2.80;;;;;;;;;;1698339;82;21068;-71
2022/08/09 02:28:31;;;;;;;3.98;2.35;;;;;;;;;;1702633;82;21128;-72
2022/08/09 02:30:59;;;;;;;3.10;2.47;;;;;;;;;;1682984;85;21112;-72
2022/08/09 02:33:26;;;;;;;3.25;2.10;;;;;;;;;;1697045;84;21116;-71
2022/08/09 02:35:54;;;;;;;2.87;2.30;;;;;;;;;;1704076;84;21052;-72
2022/08/09 02:38:21;;;;;;;3.30;2.52;;;;;;;;;;1726098;82;21039;-72
2022/08/09 02:40:47;;;;;;;3.05;2.58;;;;;;;;;;1684320;85;21318;-72
2022/08/09 02:43:13;;;;;;;4.75;2.52;;;;;;;;;;1702849;84;21052;-72
2022/08/09 02:45:41;;;;;;;3.35;2.30;;;;;;;;;;1707588;84;21064;-72
2022/08/09 02:48:09;;;;;;;2.58;2.10;;;;;;;;;;1712691;82;21076;-72
2022/08/09 02:50:37;;;;;;;2.87;2.30;;;;;;;;;;1713040;84;21037;-72
2022/08/09 02:53:05;;;;;;;3.22;2.55;;;;;;;;;;1710574;84;21057;-72
2022/08/09 02:55:31;;;;;;;3.12;2.27;;;;;;;;;;1713161;84;21025;-72
2022/08/09 02:57:57;;;;;;;4.75;2.67;;;;;;;;;;1719713;82;21095;-72
2022/08/09 03:00:23;;;;;;;3.85;2.80;;;;;;;;;;1733807;82;22150;-71
2022/08/09 03:02:51;;;;;;;2.90;2.35;;;;;;;;;;1712130;84;21113;-72
2022/08/09 03:05:17;;;;;;;2.45;2.20;;;;;;;;;;1707290;84;21102;-72
2022/08/09 03:07:44;;;;;;;2.60;2.25;;;;;;;;;;1710936;82;21053;-72
2022/08/09 03:10:10;;;;;;;3.02;2.35;;;;;;;;;;1712587;84;21049;-71
2022/08/09 03:12:37;;;;;;;4.75;2.77;;;;;;;;;;1714789;84;21507;-72
2022/08/09 03:15:04;;;;;;;2.87;2.30;;;;;;;;;;1712602;84;21608;-72
2022/08/09 03:17:30;;;;;;;3.37;2.25;;;;;;;;;;1702219;82;21007;-72
2022/08/09 03:19:57;;;;;;;4.10;2.60;;;;;;;;;;1696125;82;21512;-72
2022/08/09 03:22:23;;;;;;;3.95;2.98;;;;;;;;;;1710218;84;21064;-72
2022/08/09 03:24:50;;;;;;;3.40;3.00;;;;;;;;;;1683271;85;21571;-72
2022/08/09 03:27:17;;;;;;;3.55;2.40;;;;;;;;;;1708115;82;21063;-71
2022/08/09 03:29:43;;;;;;;2.98;2.45;;;;;;;;;;1683126;85;21053;-70
2022/08/09 03:32:09;;;;;;;5.90;2.50;;;;;;;;;;1715418;82;21059;-71
2022/08/09 03:34:35;;;;;;;2.58;2.37;;;;;;;;;;1712917;84;21071;-71
2022/08/09 03:37:02;;;;;;;3.30;2.33;;;;;;;;;;1725740;82;21032;-71
2022/08/09 03:39:28;;;;;;;3.37;2.33;;;;;;;;;;1711112;84;21076;-70
2022/08/09 03:41:54;;;;;;;3.47;2.50;;;;;;;;;;1712369;84;21484;-70
2022/08/09 03:44:21;;;;;;;3.20;2.30;;;;;;;;;;1711699;84;21076;-70
2022/08/09 03:46:48;;;;;;;3.10;2.33;;;;;;;;;;1727464;82;21071;-70
2022/08/09 03:49:14;;;;;;;3.35;2.22;;;;;;;;;;1715615;82;21088;-70
2022/08/09 03:51:41;;;;;;;2.95;2.30;;;;;;;;;;1709206;84;21032;-70
2022/08/09 03:54:08;;;;;;;3.15;2.50;;;;;;;;;;1710968;84;21073;-70
2022/08/09 03:56:34;;;;;;;4.92;2.40;;;;;;;;;;1729732;82;21071;-71
2022/08/09 03:59:00;;;;;;;3.42;2.50;;;;;;;;;;1748053;82;21036;-70
2022/08/09 04:01:27;;;;;;;2.77;2.20;;;;;;;;;;1721001;82;21584;-70
2022/08/09 04:03:53;;;;;;;2.92;2.25;;;;;;;;;;1696603;84;21643;-70
2022/08/09 04:06:19;;;;;;;3.35;2.30;;;;;;;;;;1699813;82;21044;-70
2022/08/09 04:08:45;;;;;;;2.87;2.25;;;;;;;;;;1709245;84;21067;-70
2022/08/09 04:11:12;;;;;;;3.00;2.40;;;;;;;;;;1710050;84;21533;-71
2022/08/09 04:13:38;;;;;;;3.17;2.30;;;;;;;;;;1705323;84;21038;-70
2022/08/09 04:16:05;;;;;;;2.90;2.10;;;;;;;;;;1711941;82;21009;-70
2022/08/09 04:18:31;;;;;;;2.33;2.10;;;;;;;;;;1710833;83;21001;-70
2022/08/09 04:20:57;;;;;;;3.15;2.08;;;;;;;;;;1710057;84;21595;-70
2022/08/09 04:23:23;;;;;;;3.35;2.20;;;;;;;;;;1716912;82;21014;-70
2022/08/09 04:25:49;;;;;;;2.52;2.02;;;;;;;;;;1739176;82;21103;-70
2022/08/09 04:28:16;;;;;;;2.27;2.02;;;;;;;;;;1738082;82;21076;-71
2022/08/09 04:30:42;;;;;;;2.90;2.00;;;;;;;;;;1726351;82;21028;-71
2022/08/09 04:33:08;;;;;;;3.05;2.10;;;;;;;;;;1711698;82;21041;-72
2022/08/09 04:35:35;;;;;;;3.65;2.10;;;;;;;;;;1710665;82;21049;-74
2022/08/09 04:38:01;;;;;;;3.65;2.50;;;;;;;;;;1684224;84;21072;-72
2022/08/09 04:40:47;;;;;;;3.12;2.30;;;;;;;;;;1680966;85;21021;-72
2022/08/09 04:42:55;;;;;;;2.55;2.15;;;;;;;;;;1681171;85;21100;-71
2022/08/09 04:45:21;;;;;;;3.33;2.37;;;;;;;;;;1681301;84;21092;-71
2022/08/09 04:47:47;;;;;;;2.70;2.00;;;;;;;;;;1714301;82;21080;-71
2022/08/09 04:50:14;;;;;;;2.75;2.00;;;;;;;;;;1709942;84;21081;-70
2022/08/09 04:52:42;;;;;;;4.05;2.22;;;;;;;;;;1707945;84;21132;-71
2022/08/09 04:55:09;;;;;;;2.12;1.92;;;;;;;;;;1709604;84;21087;-71
2022/08/09 04:57:35;;;;;;;2.77;2.25;;;;;;;;;;1702566;82;21587;-70
2022/08/09 05:00:04;;;;;;;2.60;2.08;;;;;;;;;;1695557;84;21048;-70
2022/08/09 05:02:30;;;;;;;2.08;1.87;;;;;;;;;;1717639;82;21020;-73
2022/08/09 05:04:56;;;;;;;2.37;2.00;;;;;;;;;;1739891;82;21611;-73
2022/08/09 05:07:23;;;;;;;3.10;2.00;;;;;;;;;;1703498;83;21081;-73
2022/08/09 05:09:49;;;;;;;2.20;2.00;;;;;;;;;;1707822;82;21034;-72
2022/08/09 05:12:16;;;;;;;6.47;4.10;;;;;;;;;;1706689;82;21129;-72
2022/08/09 05:14:42;;;;;;;3.50;2.58;;;;;;;;;;1706024;84;21101;-72
2022/08/09 05:17:09;;;;;;;4.30;2.20;;;;;;;;;;1705075;84;21023;-70
2022/08/09 05:19:35;;;;;;;2.83;2.15;;;;;;;;;;1706341;84;22211;-70
2022/08/09 05:22:01;;;;;;;2.30;1.90;;;;;;;;;;1700574;84;21078;-71
2022/08/09 05:24:28;;;;;;;4.15;2.30;;;;;;;;;;1688936;82;21058;-72
2022/08/09 05:26:54;;;;;;;2.52;2.10;;;;;;;;;;1667911;84;21088;-71
2022/08/09 05:29:20;;;;;;;2.58;2.00;;;;;;;;;;1643025;86;21073;-71
2022/08/09 05:31:47;;;;;;;3.62;2.17;;;;;;;;;;1635095;86;21064;-71
2022/08/09 05:34:14;;;;;;;2.98;2.10;;;;;;;;;;1699817;84;21076;-71
2022/08/09 05:36:41;;;;;;;5.15;2.17;;;;;;;;;;1730642;82;20991;-71
2022/08/09 05:39:07;;;;;;;3.87;2.10;;;;;;;;;;1732909;83;21075;-70
2022/08/09 05:41:34;;;;;;;3.70;2.40;;;;;;;;;;1705874;84;21050;-71
2022/08/09 05:43:59;;;;;;;3.72;2.17;;;;;;;;;;1706747;84;21050;-70
2022/08/09 05:46:26;;;;;;;1.98;1.75;;;;;;;;;;1691181;84;21560;-69
2022/08/09 05:48:54;;;;;;;2.00;1.77;;;;;;;;;;1699988;82;21042;-70
2022/08/09 05:51:20;;;;;;;3.02;1.65;;;;;;;;;;1706683;84;21075;-70
2022/08/09 05:53:47;;;;;;;2.20;1.80;;;;;;;;;;1706953;82;21071;-70
2022/08/09 05:56:13;;;;;;;2.42;2.05;;;;;;;;;;1706287;84;21060;-73
2022/08/09 05:58:39;;;;;;;4.28;2.20;;;;;;;;;;1706300;83;21114;-73
2022/08/09 06:01:05;;;;;;;2.33;2.00;;;;;;;;;;1705253;82;21811;-72
2022/08/09 06:03:32;;;;;;;3.87;2.08;;;;;;;;;;1703463;83;21093;-73
2022/08/09 06:06:00;;;;;;;2.22;1.95;;;;;;;;;;1686549;84;21086;-69
2022/08/09 06:08:26;;;;;;;2.77;2.02;;;;;;;;;;1679122;84;21060;-79
2022/08/09 06:10:52;;;;;;;2.58;1.87;;;;;;;;;;1675961;85;21053;-80
2022/08/09 06:13:19;;;;;;;2.50;2.00;;;;;;;;;;1663630;84;21088;-77
2022/08/09 06:15:45;;;;;;;2.20;2.00;;;;;;;;;;1705189;82;20989;-77
2022/08/09 06:18:11;;;;;;;3.47;1.75;;;;;;;;;;1680629;85;21013;-77
2022/08/09 06:20:37;;;;;;;2.35;1.87;;;;;;;;;;1656671;86;21033;-77
2022/08/09 06:23:04;;;;;;;3.00;2.25;;;;;;;;;;1665212;85;21072;-77
2022/08/09 06:25:31;;;;;;;3.75;2.17;;;;;;;;;;1666415;84;21041;-78
2022/08/09 06:27:57;;;;;;;2.92;2.20;;;;;;;;;;1667293;86;21537;-78
2022/08/09 06:30:23;;;;;;;3.60;1.98;;;;;;;;;;1662123;86;21069;-76
2022/08/09 06:32:54;;;;;;;4.25;2.00;;;;;;;;;;1662137;86;21049;-76
2022/08/09 06:35:25;;;;;;;3.67;2.08;;;;;;;;;;1667600;84;21053;-76
2022/08/09 06:37:48;;;;;;;2.87;1.80;;;;;;;;;;1662850;86;21083;-76
2022/08/09 06:40:15;;;;;;;3.77;2.22;;;;;;;;;;1656657;86;21149;-77
2022/08/09 06:42:41;;;;;;;5.58;2.20;;;;;;;;;;1667683;86;21089;-77
2022/08/09 06:45:08;;;;;;;2.87;2.00;;;;;;;;;;1659257;84;21089;-76
2022/08/09 06:47:35;;;;;;;2.00;1.80;;;;;;;;;;1662163;86;21082;-76
2022/08/09 06:50:01;;;;;;;6.25;2.30;;;;;;;;;;1659335;86;21561;-75
2022/08/09 06:52:27;;;;;;;3.65;1.75;;;;;;;;;;1659097;86;21068;-76
2022/08/09 06:54:53;;;;;;;2.33;1.92;;;;;;;;;;1661204;84;21044;-75
2022/08/09 06:57:20;;;;;;;1.70;1.60;;;;;;;;;;1657860;86;21040;-75
2022/08/09 06:59:46;;;;;;;2.87;1.90;;;;;;;;;;1657873;86;21060;-75
2022/08/09 07:02:12;;;;;;;3.25;1.82;;;;;;;;;;1659201;86;21057;-75
2022/08/09 07:04:38;;;;;;;2.35;1.80;;;;;;;;;;1671400;86;21065;-74
2022/08/09 07:07:05;;;;;;;2.72;2.17;;;;;;;;;;1697018;80;21072;-76
2022/08/09 07:09:31;;;;;;;2.58;2.30;;;;;;;;;;1733570;82;21144;-75
2022/08/09 07:11:57;;;;;;;2.67;1.82;;;;;;;;;;1703742;84;21356;-75
2022/08/09 07:14:23;;;;;;;4.45;1.90;;;;;;;;;;1703321;84;21069;-72
2022/08/09 07:18:30;;;;;;;3.12;2.25;;;;;;;;;;1819359;79;23544;-70
2022/08/09 07:20:56;;;;;;;2.75;2.12;;;;;;;;;;1767932;79;21061;-70
2022/08/09 07:23:23;;;;;;;3.27;1.98;;;;;;;;;;1772042;80;20989;-70
2022/08/09 07:25:48;;;;;;;3.37;1.70;;;;;;;;;;1776506;80;21064;-70
2022/08/09 07:28:15;;;;;;;2.47;1.80;;;;;;;;;;1764715;79;21461;-70
2022/08/09 07:30:41;;;;;;;2.87;1.70;;;;;;;;;;1774623;79;21061;-70
2022/08/09 07:33:07;;;;;;;2.37;1.98;;;;;;;;;;1766133;79;21068;-70
2022/08/09 07:35:33;;;;;;;3.30;1.80;;;;;;;;;;1792163;80;21063;-71
2022/08/09 07:38:01;;;;;;;2.20;1.67;;;;;;;;;;1784389;80;21524;-70
2022/08/09 07:40:27;;;;;;;2.05;1.85;;;;;;;;;;1767690;80;21599;-70
2022/08/09 07:42:54;;;;;;;3.10;1.80;;;;;;;;;;1772914;79;21016;-70
2022/08/09 07:45:24;;;;;;;2.37;1.70;;;;;;;;;;1772494;79;21036;-71
2022/08/09 07:47:49;;;;;;;2.65;1.90;;;;;;;;;;1784195;79;21028;-70
2022/08/09 07:50:15;;;;;;;2.27;1.75;;;;;;;;;;1775040;79;21091;-69
2022/08/09 07:52:41;;;;;;;3.50;2.10;;;;;;;;;;1777311;79;21090;-70
2022/08/09 07:55:08;;;;;;;3.30;1.90;;;;;;;;;;1787839;80;21095;-69
2022/08/09 07:57:34;;;;;;;1.92;1.72;;;;;;;;;;1778712;80;21081;-70
2022/08/09 08:00:01;;;;;;;2.65;1.80;;;;;;;;;;1776607;79;21092;-71
2022/08/09 08:02:27;;;;;;;3.37;1.65;;;;;;;;;;1789173;79;21004;-71
2022/08/09 08:04:53;;;;;;;2.85;1.47;;;;;;;;;;1782130;78;21000;-70
2022/08/09 08:07:19;;;;;;;1.62;1.52;;;;;;;;;;1781537;78;20969;-70
2022/08/09 08:09:45;;;;;;;2.47;1.90;;;;;;;;;;1783885;78;21036;-70
2022/08/09 08:12:11;;;;;;;2.42;1.82;;;;;;;;;;1765909;78;21588;-71
2022/08/09 08:14:37;;;;;;;1.80;1.70;;;;;;;;;;1758015;79;20985;-71
2022/08/09 08:17:03;;;;;;;1.50;1.40;;;;;;;;;;1777819;78;21352;-70
2022/08/09 08:19:29;;;;;;;1.98;1.70;;;;;;;;;;1788171;79;21068;-71
2022/08/09 08:21:56;;;;;;;2.83;1.85;;;;;;;;;;1779973;80;21021;-71
2022/08/09 08:24:22;;;;;;;2.08;1.77;;;;;;;;;;1793840;79;21040;-71
2022/08/09 08:26:48;;;;;;;3.47;1.90;;;;;;;;;;1805990;79;21013;-71
2022/08/09 08:29:18;;;;;;;2.05;1.52;;;;;;;;;;1756272;80;21029;-70
2022/08/09 08:31:42;;;;;;;2.00;1.60;;;;;;;;;;1779033;79;21021;-70
2022/08/09 08:34:08;;;;;;;2.17;1.60;;;;;;;;;;1801539;79;21029;-70
2022/08/09 08:36:34;;;;;;;5.08;4.00;;;;;;;;;;1759970;80;21052;-67
2022/08/09 08:39:00;;;;;;;2.17;1.90;;;;;;;;;;1783967;80;21543;-67
2022/08/09 08:41:26;;;;;;;1.82;1.72;;;;;;;;;;1783011;79;20986;-68
2022/08/09 08:43:52;;;;;;;4.08;1.90;;;;;;;;;;1750021;79;21072;-68
2022/08/09 08:46:19;;;;;;;1.98;1.60;;;;;;;;;;1771154;79;21080;-66
2022/08/09 08:48:45;;;;;;;2.05;1.60;;;;;;;;;;1775246;80;21016;-66
2022/08/09 08:51:11;;;;;;;1.50;1.40;;;;;;;;;;1775568;79;20996;-67
2022/08/09 08:53:37;;;;;;;1.65;1.50;;;;;;;;;;1807674;79;21020;-67
2022/08/09 08:56:04;;;;;;;1.62;1.50;;;;;;;;;;1815961;79;20996;-68
2022/08/09 08:58:30;;;;;;;1.82;1.60;;;;;;;;;;1803573;79;21591;-67
2022/08/09 09:00:56;;;;;;;1.67;1.50;;;;;;;;;;1772807;79;21037;-68
2022/08/09 09:03:23;;;;;;;2.30;1.70;;;;;;;;;;1772240;80;21081;-67
2022/08/09 09:05:49;;;;;;;1.60;1.50;;;;;;;;;;1768921;80;21048;-68
2022/08/09 09:08:17;;;;;;;1.70;1.55;;;;;;;;;;1740916;80;21470;-68
2022/08/09 09:10:43;;;;;;;1.70;1.60;;;;;;;;;;1768568;79;21068;-67
2022/08/09 09:13:09;;;;;;;2.65;1.57;;;;;;;;;;1771043;79;20997;-67
2022/08/09 09:15:36;;;;;;;2.15;1.60;;;;;;;;;;1781216;80;21224;-68
2022/08/09 09:18:02;;;;;;;2.62;1.70;;;;;;;;;;1764227;80;21556;-67
2022/08/09 09:20:29;;;;;;;1.90;1.70;;;;;;;;;;1720020;81;21096;-66
2022/08/09 09:22:56;;;;;;;2.17;1.50;;;;;;;;;;1709975;83;21044;-66
2022/08/09 09:25:33;;;;;;;1.75;1.50;;;;;;;;;;1694275;83;21080;-68
2022/08/09 09:27:59;;;;;;;1.98;1.60;;;;;;;;;;1708526;82;21014;-67
2022/08/09 09:30:25;;;;;;;3.02;1.80;;;;;;;;;;1708013;84;21008;-67
2022/08/09 09:32:56;;;;;;;2.30;1.50;;;;;;;;;;1704976;84;21053;-66
2022/08/09 09:35:23;;;;;;;1.50;1.40;;;;;;;;;;1721579;83;21101;-66
2022/08/09 09:37:49;;;;;;;3.55;1.92;;;;;;;;;;1687364;84;21126;-66
2022/08/09 09:40:15;;;;;;;2.42;1.70;;;;;;;;;;1683355;84;21066;-67
2022/08/09 09:42:41;;;;;;;1.77;1.67;;;;;;;;;;1699053;84;21589;-67
2022/08/09 09:45:07;;;;;;;1.92;1.70;;;;;;;;;;1699138;84;21031;-67
2022/08/09 09:47:33;;;;;;;1.92;1.60;;;;;;;;;;1698793;84;21089;-67
2022/08/09 09:50:00;;;;;;;2.77;1.75;;;;;;;;;;1706811;83;21557;-68
2022/08/09 09:52:26;;;;;;;2.85;1.60;;;;;;;;;;1703115;83;21020;-68
2022/08/09 09:54:54;;;;;;;1.70;1.60;;;;;;;;;;1675095;86;21089;-68
2022/08/09 09:57:21;;;;;;;1.70;1.57;;;;;;;;;;1711632;82;21108;-69
2022/08/09 09:59:48;;;;;;;2.27;1.52;;;;;;;;;;1740777;82;21033;-68
2022/08/09 10:02:14;;;;;;;1.72;1.60;;;;;;;;;;1708507;82;21044;-68
2022/08/09 10:04:40;;;;;;;2.27;2.00;;;;;;;;;;1695437;82;21067;-67
2022/08/09 10:07:24;;;;;;;2.95;2.05;;;;;;;;;;1755796;81;21044;-67
2022/08/09 10:09:50;;;;;;;3.17;1.90;;;;;;;;;;1728744;82;21015;-67
2022/08/09 10:12:23;;;;;;;3.10;1.65;;;;;;;;;;1746627;81;21021;-67
2022/08/09 10:14:50;;;;;;;1.70;1.60;;;;;;;;;;1725643;83;21041;-64
2022/08/09 10:17:17;;;;;;;2.55;1.98;;;;;;;;;;1696737;83;21072;-66
2022/08/09 10:19:43;;;;;;;2.80;2.00;;;;;;;;;;1770578;80;21029;-66
2022/08/09 10:22:09;;;;;;;3.27;2.60;;;;;;;;;;1764574;79;21006;-65
2022/08/09 10:24:35;;;;;;;2.22;2.02;;;;;;;;;;1774705;79;21021;-66
2022/08/09 10:27:01;;;;;;;3.77;2.10;;;;;;;;;;1775830;79;21036;-67
2022/08/09 10:29:28;;;;;;;3.02;2.15;;;;;;;;;;1783662;80;21115;-67
2022/08/09 10:31:54;;;;;;;5.28;3.67;;;;;;;;;;1792159;79;21531;-66
2022/08/09 10:34:20;;;;;;;1.87;1.77;;;;;;;;;;1776972;79;21029;-66
2022/08/09 10:36:48;;;;;;;4.05;2.10;;;;;;;;;;1762191;80;21080;-65
2022/08/09 10:39:16;;;;;;;2.00;1.80;;;;;;;;;;1770975;80;21040;-65
2022/08/09 10:41:43;;;;;;;3.60;2.50;;;;;;;;;;1769889;79;21067;-65
2022/08/09 10:44:09;;;;;;;3.83;2.62;;;;;;;;;;1764355;80;21562;-66
2022/08/09 10:46:49;;;;;;;6.25;4.72;;;;;;;;;;1763104;80;21013;-67
2022/08/09 10:49:18;;;;;;;4.90;2.70;;;;;;;;;;1770880;79;21576;-67
2022/08/09 10:51:49;;;;;;;2.08;1.75;;;;;;;;;;1758703;80;21103;-66
2022/08/09 10:54:15;;;;;;;1.82;1.70;;;;;;;;;;1770365;80;21063;-66
2022/08/09 10:56:41;;;;;;;2.17;1.82;;;;;;;;;;1738065;80;21080;-65
2022/08/09 10:59:26;;;;;;;3.95;2.15;;;;;;;;;;1775010;80;21036;-67
2022/08/09 11:01:52;;;;;;;2.50;2.08;;;;;;;;;;1781390;79;21029;-67
2022/08/09 11:04:20;;;;;;;2.58;1.90;;;;;;;;;;1779339;80;21012;-66
2022/08/09 11:06:51;;;;;;;2.47;1.90;;;;;;;;;;1769676;79;21561;-66
2022/08/09 11:09:17;;;;;;;2.60;1.67;;;;;;;;;;1768873;79;21497;-66
2022/08/09 11:12:00;;;;;;;2.80;1.90;;;;;;;;;;1783537;79;21048;-66
2022/08/09 11:14:30;;;;;;;1.87;1.70;;;;;;;;;;1778339;80;21032;-66
2022/08/09 11:16:57;;;;;;;2.50;1.98;;;;;;;;;;1776997;80;21089;-66
2022/08/09 11:19:42;;;;;;;3.22;1.70;;;;;;;;;;1756849;80;21555;-66
2022/08/09 11:22:08;;;;;;;1.70;1.50;;;;;;;;;;1732995;82;21068;-66
2022/08/09 11:24:51;;;;;;;3.12;1.57;;;;;;;;;;1723540;82;21048;-66
2022/08/09 11:27:30;;;;;;;3.58;2.05;;;;;;;;;;1634323;86;21108;-67
2022/08/09 11:29:57;;;;;;;4.92;1.77;;;;;;;;;;1724005;82;21008;-67
2022/08/09 11:32:40;;;;;;;2.70;1.65;;;;;;;;;;1738259;82;21052;-67
2022/08/09 11:35:06;;;;;;;;;;;;;;;;;;1711481;82;21044;-66
2022/08/09 11:37:33;;;;;;;4.90;1.85;;;;;;;;;;1751149;82;20142;-67
2022/08/09 11:40:04;;;;;;;3.47;1.70;;;;;;;;;;1750225;82;21093;-66
2022/08/09 11:42:37;;;;;;;2.27;1.60;;;;;;;;;;1731993;82;21060;-67
2022/08/09 11:45:03;;;;;;;3.02;1.80;;;;;;;;;;1750017;82;21295;-66
2022/08/09 11:47:35;;;;;;;1.60;1.50;;;;;;;;;;1734548;82;21033;-66
2022/08/09 11:50:02;;;;;;;1.65;1.55;;;;;;;;;;1722209;82;21375;-65
2022/08/09 11:52:30;;;;;;;2.05;1.85;;;;;;;;;;1722426;83;21036;-66
2022/08/09 11:55:16;;;;;;;3.67;2.77;;;;;;;;;;1723307;82;21091;-66
2022/08/09 11:57:43;;;;;;;3.00;1.80;;;;;;;;;;1722986;82;21087;-66
2022/08/09 12:00:10;;;;;;;4.20;1.92;;;;;;;;;;1751754;82;21017;-66
2022/08/09 12:02:37;;;;;;;2.27;1.95;;;;;;;;;;1748420;82;21080;-66
2022/08/09 12:05:03;;;;;;;2.05;1.77;;;;;;;;;;1726813;82;21067;-67
2022/08/09 12:07:30;;;;;;;2.05;1.50;;;;;;;;;;1735805;82;21512;-67
2022/08/09 12:09:58;;;;;;;2.47;1.80;;;;;;;;;;1729660;82;21004;-67
2022/08/09 12:12:24;;;;;;;2.10;1.82;;;;;;;;;;1739815;82;21606;-68
2022/08/09 12:14:50;;;;;;;2.33;1.87;;;;;;;;;;1743449;82;21025;-67
2022/08/09 12:17:16;;;;;;;3.17;1.70;;;;;;;;;;1739816;82;21032;-67
2022/08/09 12:19:42;;;;;;;1.92;1.62;;;;;;;;;;1767203;80;21032;-68
2022/08/09 12:22:08;;;;;;;1.98;1.70;;;;;;;;;;1773038;80;21087;-67
2022/08/09 12:24:34;;;;;;;2.42;1.70;;;;;;;;;;1776080;79;21021;-67
2022/08/09 12:27:00;;;;;;;2.17;1.62;;;;;;;;;;1776859;79;20965;-67
2022/08/09 12:29:27;;;;;;;2.00;1.80;;;;;;;;;;1771268;79;21536;-67
2022/08/09 12:32:00;;;;;;;2.52;1.60;;;;;;;;;;1784981;79;21020;-67
2022/08/09 12:34:26;;;;;;;;;;;;;;;;;;1770261;80;21032;-66
2022/08/09 12:36:53;;;;;;;1.67;1.50;;;;;;;;;;1780894;79;20141;-67
2022/08/09 12:39:19;;;;;;;2.35;1.92;;;;;;;;;;1772426;79;21001;-67
2022/08/09 12:41:45;;;;;;;4.78;3.17;;;;;;;;;;1814440;79;21558;-67
2022/08/09 12:44:11;;;;;;;3.00;2.00;;;;;;;;;;1771836;79;21036;-68
2022/08/09 12:46:38;;;;;;;1.98;1.55;;;;;;;;;;1752697;82;21009;-67
2022/08/09 12:49:06;;;;;;;1.65;1.40;;;;;;;;;;1782004;79;21032;-67
2022/08/09 12:51:32;;;;;;;3.17;1.60;;;;;;;;;;1796973;79;21095;-66
2022/08/09 12:53:59;;;;;;;2.20;1.60;;;;;;;;;;1775638;79;21063;-66
2022/08/09 12:56:26;;;;;;;2.15;1.65;;;;;;;;;;1778066;80;21056;-66
2022/08/09 12:59:06;;;;;;;2.00;1.80;;;;;;;;;;1770868;80;21059;-67
2022/08/09 13:01:33;;;;;;;1.60;1.50;;;;;;;;;;1789104;79;21049;-65
2022/08/09 13:04:06;;;;;;;1.87;1.70;;;;;;;;;;1756798;79;21060;-65
2022/08/09 13:06:35;;;;;;;3.35;1.70;;;;;;;;;;1772928;79;21017;-64
2022/08/09 13:09:06;;;;;;;1.82;1.50;;;;;;;;;;1783250;80;21051;-66
2022/08/09 13:11:34;;;;;;;2.08;1.60;;;;;;;;;;1782543;80;21068;-65
2022/08/09 13:14:00;;;;;;;1.60;1.50;;;;;;;;;;1783561;80;21060;-67
2022/08/09 13:16:42;;;;;;;2.37;1.60;;;;;;;;;;1783677;79;21575;-68
2022/08/09 13:19:08;;;;;;;2.35;1.42;;;;;;;;;;1783568;80;21061;-67
2022/08/09 13:21:34;;;;;;;1.40;1.30;;;;;;;;;;1782718;80;21134;-68
2022/08/09 13:24:07;;;;;;;2.40;1.52;;;;;;;;;;1775293;79;21075;-66
2022/08/09 13:26:34;;;;;;;2.85;1.80;;;;;;;;;;1768221;79;21043;-66
2022/08/09 13:29:05;;;;;;;3.37;1.90;;;;;;;;;;1772186;79;21038;-66
2022/08/09 13:31:31;;;;;;;2.05;1.50;;;;;;;;;;1768997;79;21079;-65
2022/08/09 13:33:56;;;;;;;1.70;1.60;;;;;;;;;;1779544;79;21040;-66
2022/08/09 13:36:23;;;;;;;4.45;1.60;;;;;;;;;;1777456;80;21123;-66
2022/08/09 13:38:49;;;;;;;2.05;1.60;;;;;;;;;;1770725;79;21032;-65
2022/08/09 13:41:21;;;;;;;3.92;3.10;;;;;;;;;;1771325;79;22338;-67
2022/08/09 13:43:47;;;;;;;3.60;3.05;;;;;;;;;;1770027;80;21480;-66
2022/08/09 13:46:13;;;;;;;3.10;2.00;;;;;;;;;;1779634;79;21009;-67
2022/08/09 13:48:39;;;;;;;1.90;1.62;;;;;;;;;;1773224;79;21036;-67
2022/08/09 13:51:06;;;;;;;3.90;1.70;;;;;;;;;;1780135;79;21109;-69
2022/08/09 13:53:33;;;;;;;2.12;1.70;;;;;;;;;;1747694;80;21105;-70
2022/08/09 13:56:00;;;;;;;1.90;1.60;;;;;;;;;;1781022;80;21568;-71
2022/08/09 13:58:26;;;;;;;1.90;1.60;;;;;;;;;;1778437;80;21040;-70
2022/08/09 14:00:53;;;;;;;2.52;1.60;;;;;;;;;;1783563;80;21056;-70
2022/08/09 14:03:20;;;;;;;2.65;1.60;;;;;;;;;;1769187;79;21072;-70
2022/08/09 14:05:46;;;;;;;2.70;1.60;;;;;;;;;;1772012;79;20997;-71
2022/08/09 14:08:12;;;;;;;1.60;1.47;;;;;;;;;;1775889;79;20990;-70
2022/08/09 14:10:38;;;;;;;3.92;1.80;;;;;;;;;;1771356;80;21165;-69
2022/08/09 14:13:06;;;;;;;3.00;2.22;;;;;;;;;;1772491;80;21079;-73
2022/08/09 14:15:32;;;;;;;4.22;2.58;;;;;;;;;;1765568;80;21068;-69
2022/08/09 14:17:58;;;;;;;3.75;2.22;;;;;;;;;;1776522;79;20989;-68
2022/08/09 14:20:24;;;;;;;2.70;1.72;;;;;;;;;;1761099;80;21076;-68
2022/08/09 14:22:50;;;;;;;2.52;2.00;;;;;;;;;;1777372;80;20997;-68
2022/08/09 14:25:16;;;;;;;2.95;2.10;;;;;;;;;;1776900;80;21520;-68
2022/08/09 14:27:42;;;;;;;4.10;2.12;;;;;;;;;;1767745;80;21088;-68
2022/08/09 14:30:10;;;;;;;3.50;2.02;;;;;;;;;;1769687;79;21033;-68
2022/08/09 14:32:36;;;;;;;4.17;2.45;;;;;;;;;;1777015;80;21050;-68
2022/08/09 14:35:03;;;;;;;3.00;2.30;;;;;;;;;;1774584;79;21358;-68
2022/08/09 14:37:29;;;;;;;3.58;2.22;;;;;;;;;;1781684;80;21040;-68
2022/08/09 14:39:55;;;;;;;4.12;2.75;;;;;;;;;;1761541;79;22013;-69
2022/08/09 14:42:21;;;;;;;2.92;2.27;;;;;;;;;;1760707;79;21314;-69
2022/08/09 14:44:48;;;;;;;3.45;2.00;;;;;;;;;;1770280;80;21021;-69
2022/08/09 14:47:14;;;;;;;2.50;2.00;;;;;;;;;;1762983;80;21064;-68
2022/08/09 14:49:40;;;;;;;3.98;1.85;;;;;;;;;;1777090;79;20996;-67
2022/08/09 14:52:06;;;;;;;4.30;2.47;;;;;;;;;;1780016;79;21008;-68